createdAt,value
2016-05-21T00:00:06.073Z,22.45
2016-05-21T00:01:05.936Z,22.94
2016-05-21T00:02:06.234Z,23.35
2016-05-21T00:03:06.253Z,23.58
2016-05-21T00:04:06.256Z,23.54
2016-05-21T00:05:06.258Z,23.7
2016-05-21T00:06:06.261Z,23.76
2016-05-21T00:07:06.263Z,23.85
2016-05-21T00:08:06.111Z,23.8
2016-05-21T00:09:06.285Z,23.78
2016-05-21T00:10:06.272Z,23.87
2016-05-21T00:11:06.743Z,23.79
2016-05-21T00:12:06.148Z,23.87
2016-05-21T00:13:06.167Z,23.93
2016-05-21T00:14:06.326Z,23.91
2016-05-21T00:15:06.360Z,23.9
2016-05-21T00:16:06.379Z,23.85
2016-05-21T00:17:06.390Z,23.88
2016-05-21T00:18:06.241Z,23.84
2016-05-21T00:19:06.266Z,23.91
2016-05-21T00:20:06.274Z,23.88
2016-05-21T00:21:06.454Z,23.9
2016-05-21T00:22:06.288Z,23.88
2016-05-21T00:23:06.466Z,23.91
2016-05-21T00:24:06.470Z,23.91
2016-05-21T00:25:06.476Z,23.88
2016-05-21T00:26:06.558Z,23.87
2016-05-21T00:27:06.500Z,23.91
2016-05-21T00:28:06.504Z,23.87
2016-05-21T00:29:06.522Z,23.93
2016-05-21T00:30:06.525Z,23.95
2016-05-21T00:31:06.356Z,23.93
2016-05-21T00:32:06.517Z,23.91
2016-05-21T00:33:06.520Z,23.95
2016-05-21T00:34:06.522Z,23.97
2016-05-21T00:35:06.556Z,23.91
2016-05-21T00:36:06.543Z,23.95
2016-05-21T00:37:06.545Z,23.93
2016-05-21T00:38:06.564Z,23.93
2016-05-21T00:39:06.567Z,23.85
2016-05-21T00:40:06.569Z,23.93
2016-05-21T00:41:07.837Z,23.9
2016-05-21T00:42:06.575Z,23.93
2016-05-21T00:43:06.577Z,23.84
2016-05-21T00:44:06.595Z,23.88
2016-05-21T00:45:06.597Z,23.93
2016-05-21T00:46:06.601Z,23.79
2016-05-21T00:47:06.464Z,23.87
2016-05-21T00:48:06.622Z,23.9
2016-05-21T00:49:06.625Z,23.87
2016-05-21T00:50:06.627Z,23.94
2016-05-21T00:51:06.630Z,23.91
2016-05-21T00:52:06.649Z,23.88
2016-05-21T00:53:06.494Z,23.9
2016-05-21T00:54:06.654Z,23.93
2016-05-21T00:55:06.656Z,23.88
2016-05-21T00:56:06.518Z,23.87
2016-05-21T00:57:06.662Z,23.94
2016-05-21T00:58:06.679Z,23.87
2016-05-21T00:59:06.682Z,23.87
2016-05-21T01:00:06.685Z,23.87
2016-05-21T01:01:06.704Z,23.8
2016-05-21T01:02:07.129Z,23.83
2016-05-21T01:03:06.709Z,23.88
2016-05-21T01:04:06.712Z,23.94
2016-05-21T01:05:06.731Z,23.97
2016-05-21T01:06:06.717Z,23.91
2016-05-21T01:07:06.720Z,23.79
2016-05-21T01:08:06.582Z,23.83
2016-05-21T01:09:06.741Z,23.88
2016-05-21T01:10:06.744Z,23.87
2016-05-21T01:11:07.589Z,23.85
2016-05-21T01:12:06.749Z,23.79
2016-05-21T01:13:06.767Z,23.91
2016-05-21T01:14:06.769Z,23.93
2016-05-21T01:15:06.773Z,23.87
2016-05-21T01:16:06.635Z,23.91
2016-05-21T01:17:06.778Z,23.95
2016-05-21T01:18:06.641Z,23.87
2016-05-21T01:19:06.643Z,23.83
2016-05-21T01:20:06.646Z,23.8
2016-05-21T01:21:06.649Z,23.84
2016-05-21T01:22:06.822Z,23.76
2016-05-21T01:23:06.825Z,23.9
2016-05-21T01:24:06.844Z,23.88
2016-05-21T01:25:06.830Z,23.91
2016-05-21T01:26:06.693Z,23.88
2016-05-21T01:27:06.851Z,23.8
2016-05-21T01:28:06.854Z,23.85
2016-05-21T01:29:06.857Z,23.78
2016-05-21T01:30:06.704Z,23.85
2016-05-21T01:31:06.722Z,23.83
2016-05-21T01:32:06.881Z,23.84
2016-05-21T01:33:06.884Z,23.79
2016-05-21T01:34:06.887Z,23.73
2016-05-21T01:35:06.889Z,23.79
2016-05-21T01:36:06.892Z,23.88
2016-05-21T01:37:06.895Z,23.73
2016-05-21T01:38:06.912Z,23.78
2016-05-21T01:39:06.931Z,23.76
2016-05-21T01:40:06.918Z,23.83
2016-05-21T01:41:06.795Z,23.76
2016-05-21T01:42:06.939Z,23.84
2016-05-21T01:43:06.942Z,23.79
2016-05-21T01:44:06.789Z,23.78
2016-05-21T01:45:06.948Z,23.83
2016-05-21T01:46:06.809Z,23.75
2016-05-21T01:47:06.953Z,23.87
2016-05-21T01:48:06.971Z,23.76
2016-05-21T01:49:07.020Z,23.84
2016-05-21T01:50:06.836Z,23.79
2016-05-21T01:51:06.994Z,23.72
2016-05-21T01:52:06.997Z,23.8
2016-05-21T01:53:06.999Z,23.76
2016-05-21T01:54:07.002Z,23.91
2016-05-21T01:55:07.005Z,23.84
2016-05-21T01:56:07.305Z,23.8
2016-05-21T01:57:06.871Z,23.73
2016-05-21T01:58:07.029Z,23.85
2016-05-21T01:59:07.032Z,23.87
2016-05-21T02:00:07.035Z,23.8
2016-05-21T02:01:07.037Z,23.84
2016-05-21T02:02:07.055Z,23.91
2016-05-21T02:03:06.917Z,23.87
2016-05-21T02:04:07.060Z,23.78
2016-05-21T02:05:07.079Z,23.85
2016-05-21T02:06:06.925Z,23.8
2016-05-21T02:07:07.084Z,23.76
2016-05-21T02:08:07.087Z,23.87
2016-05-21T02:09:07.089Z,23.78
2016-05-21T02:10:07.092Z,23.8
2016-05-21T02:11:06.954Z,23.79
2016-05-21T02:12:06.957Z,23.88
2016-05-21T02:13:07.117Z,23.87
2016-05-21T02:14:07.119Z,23.78
2016-05-21T02:15:07.122Z,23.8
2016-05-21T02:16:07.125Z,23.84
2016-05-21T02:17:07.174Z,23.88
2016-05-21T02:18:06.989Z,23.85
2016-05-21T02:19:07.163Z,23.79
2016-05-21T02:20:07.166Z,23.91
2016-05-21T02:21:07.169Z,23.87
2016-05-21T02:22:07.172Z,23.83
2016-05-21T02:23:07.174Z,23.83
2016-05-21T02:24:07.021Z,23.78
2016-05-21T02:25:07.180Z,23.8
2016-05-21T02:26:07.199Z,23.87
2016-05-21T02:27:07.201Z,23.84
2016-05-21T02:28:07.203Z,23.76
2016-05-21T02:29:07.207Z,23.78
2016-05-21T02:30:07.209Z,23.79
2016-05-21T02:31:07.227Z,23.78
2016-05-21T02:32:07.230Z,23.78
2016-05-21T02:33:07.232Z,23.88
2016-05-21T02:34:07.235Z,23.8
2016-05-21T02:35:07.237Z,23.73
2016-05-21T02:36:07.257Z,23.76
2016-05-21T02:37:07.258Z,23.76
2016-05-21T02:38:07.106Z,23.75
2016-05-21T02:39:07.265Z,23.75
2016-05-21T02:40:07.126Z,23.73
2016-05-21T02:41:07.801Z,23.75
2016-05-21T02:42:07.131Z,23.76
2016-05-21T02:43:07.290Z,23.68
2016-05-21T02:44:07.293Z,23.63
2016-05-21T02:45:07.327Z,23.69
2016-05-21T02:46:07.298Z,23.63
2016-05-21T02:47:07.316Z,23.61
2016-05-21T02:48:07.163Z,23.73
2016-05-21T02:49:07.322Z,23.69
2016-05-21T02:50:07.325Z,23.7
2016-05-21T02:51:07.375Z,23.72
2016-05-21T02:52:07.361Z,23.72
2016-05-21T02:53:07.364Z,23.69
2016-05-21T02:54:07.352Z,23.72
2016-05-21T02:55:07.385Z,23.73
2016-05-21T02:56:07.419Z,23.69
2016-05-21T02:57:07.219Z,23.68
2016-05-21T02:58:07.377Z,23.76
2016-05-21T02:59:07.380Z,23.68
2016-05-21T03:00:07.383Z,23.69
2016-05-21T03:01:07.386Z,23.69
2016-05-21T03:02:07.498Z,23.65
2016-05-21T03:03:07.265Z,23.65
2016-05-21T03:04:07.426Z,23.68
2016-05-21T03:05:07.115Z,23.61
2016-05-21T03:06:07.431Z,23.6
2016-05-21T03:07:07.433Z,23.66
2016-05-21T03:08:07.436Z,23.65
2016-05-21T03:09:07.439Z,23.76
2016-05-21T03:10:07.442Z,23.63
2016-05-21T03:11:07.459Z,23.58
2016-05-21T03:12:07.462Z,23.68
2016-05-21T03:13:07.465Z,23.75
2016-05-21T03:14:07.483Z,23.57
2016-05-21T03:15:07.470Z,23.66
2016-05-21T03:16:07.489Z,23.6
2016-05-21T03:17:07.319Z,23.63
2016-05-21T03:18:07.478Z,23.57
2016-05-21T03:19:07.497Z,23.57
2016-05-21T03:20:07.499Z,23.6
2016-05-21T03:21:07.347Z,23.63
2016-05-21T03:22:07.520Z,23.69
2016-05-21T03:23:07.383Z,23.65
2016-05-21T03:24:07.542Z,23.66
2016-05-21T03:25:07.372Z,23.68
2016-05-21T03:26:07.391Z,23.6
2016-05-21T03:27:07.549Z,23.54
2016-05-21T03:28:07.553Z,23.6
2016-05-21T03:29:07.555Z,23.58
2016-05-21T03:30:07.557Z,23.6
2016-05-21T03:31:07.576Z,23.66
2016-05-21T03:32:07.579Z,23.66
2016-05-21T03:33:07.565Z,23.65
2016-05-21T03:34:07.427Z,23.68
2016-05-21T03:35:07.587Z,23.57
2016-05-21T03:36:07.449Z,23.61
2016-05-21T03:37:07.592Z,23.63
2016-05-21T03:38:07.454Z,23.65
2016-05-21T03:39:07.457Z,23.58
2016-05-21T03:40:07.631Z,23.69
2016-05-21T03:41:07.931Z,23.66
2016-05-21T03:42:07.621Z,23.57
2016-05-21T03:43:07.639Z,23.68
2016-05-21T03:44:07.642Z,23.57
2016-05-21T03:45:07.661Z,23.58
2016-05-21T03:46:07.663Z,23.61
2016-05-21T03:47:07.666Z,23.66
2016-05-21T03:48:07.669Z,23.61
2016-05-21T03:49:07.672Z,23.58
2016-05-21T03:50:07.674Z,23.6
2016-05-21T03:51:07.395Z,23.66
2016-05-21T03:52:07.695Z,23.65
2016-05-21T03:53:07.541Z,23.66
2016-05-21T03:54:07.700Z,23.6
2016-05-21T03:55:07.703Z,23.63
2016-05-21T03:56:07.986Z,23.63
2016-05-21T03:57:07.708Z,23.65
2016-05-21T03:58:07.727Z,23.68
2016-05-21T03:59:07.730Z,23.68
2016-05-21T04:00:07.732Z,23.55
2016-05-21T04:01:07.750Z,23.66
2016-05-21T04:02:07.752Z,23.54
2016-05-21T04:03:07.771Z,23.66
2016-05-21T04:04:07.758Z,23.63
2016-05-21T04:05:07.761Z,23.63
2016-05-21T04:06:07.763Z,23.68
2016-05-21T04:07:07.610Z,23.7
2016-05-21T04:08:07.629Z,23.53
2016-05-21T04:09:07.803Z,23.65
2016-05-21T04:10:07.790Z,23.69
2016-05-21T04:11:08.137Z,23.65
2016-05-21T04:12:07.795Z,23.61
2016-05-21T04:13:07.814Z,23.68
2016-05-21T04:14:07.660Z,23.65
2016-05-21T04:15:07.820Z,23.72
2016-05-21T04:16:07.823Z,23.66
2016-05-21T04:17:07.840Z,23.66
2016-05-21T04:18:07.843Z,23.58
2016-05-21T04:19:07.845Z,23.68
2016-05-21T04:20:07.692Z,23.61
2016-05-21T04:21:07.883Z,23.68
2016-05-21T04:22:07.714Z,23.57
2016-05-21T04:23:07.872Z,23.66
2016-05-21T04:24:07.859Z,23.63
2016-05-21T04:25:07.877Z,23.69
2016-05-21T04:26:07.787Z,23.66
2016-05-21T04:27:07.882Z,23.58
2016-05-21T04:28:07.729Z,23.69
2016-05-21T04:29:07.904Z,23.68
2016-05-21T04:30:07.907Z,23.69
2016-05-21T04:31:07.910Z,23.63
2016-05-21T04:32:07.755Z,23.68
2016-05-21T04:33:07.915Z,23.61
2016-05-21T04:34:07.932Z,23.66
2016-05-21T04:35:07.935Z,23.65
2016-05-21T04:36:07.938Z,23.68
2016-05-21T04:37:07.800Z,23.65
2016-05-21T04:38:07.960Z,23.63
2016-05-21T04:39:07.946Z,23.61
2016-05-21T04:40:07.809Z,23.7
2016-05-21T04:41:07.983Z,23.68
2016-05-21T04:42:07.970Z,23.58
2016-05-21T04:43:07.988Z,23.63
2016-05-21T04:44:07.990Z,23.61
2016-05-21T04:45:07.993Z,23.57
2016-05-21T04:46:07.996Z,23.57
2016-05-21T04:47:07.859Z,23.61
2016-05-21T04:48:08.064Z,23.63
2016-05-21T04:49:08.020Z,23.54
2016-05-21T04:50:08.023Z,23.61
2016-05-21T04:51:08.026Z,23.63
2016-05-21T04:52:08.028Z,23.76
2016-05-21T04:53:08.047Z,23.68
2016-05-21T04:54:08.080Z,23.75
2016-05-21T04:55:08.052Z,23.7
2016-05-21T04:56:07.914Z,23.65
2016-05-21T04:57:08.058Z,23.73
2016-05-21T04:58:07.903Z,23.76
2016-05-21T04:59:08.077Z,23.78
2016-05-21T05:00:07.925Z,23.75
2016-05-21T05:01:07.927Z,23.68
2016-05-21T05:02:08.102Z,23.69
2016-05-21T05:03:08.104Z,23.69
2016-05-21T05:04:07.951Z,23.75
2016-05-21T05:05:08.110Z,23.7
2016-05-21T05:06:07.972Z,23.7
2016-05-21T05:07:07.974Z,23.72
2016-05-21T05:08:08.118Z,23.69
2016-05-21T05:09:08.136Z,23.72
2016-05-21T05:10:07.999Z,23.63
2016-05-21T05:11:08.095Z,23.7
2016-05-21T05:12:08.145Z,23.75
2016-05-21T05:13:08.163Z,23.75
2016-05-21T05:14:08.181Z,23.72
2016-05-21T05:15:08.168Z,23.69
2016-05-21T05:16:08.202Z,23.7
2016-05-21T05:17:08.190Z,23.66
2016-05-21T05:18:08.192Z,23.73
2016-05-21T05:19:08.195Z,23.7
2016-05-21T05:20:08.197Z,23.7
2016-05-21T05:21:08.044Z,23.76
2016-05-21T05:22:08.218Z,23.68
2016-05-21T05:23:08.220Z,23.63
2016-05-21T05:24:08.239Z,23.78
2016-05-21T05:25:08.414Z,23.66
2016-05-21T05:26:08.244Z,23.73
2016-05-21T05:27:08.075Z,23.8
2016-05-21T05:28:08.250Z,23.78
2016-05-21T05:29:08.252Z,23.91
2016-05-21T05:30:08.256Z,23.93
2016-05-21T05:31:08.274Z,23.93
2016-05-21T05:32:08.276Z,23.87
2016-05-21T05:33:08.279Z,23.93
2016-05-21T05:34:08.297Z,23.98
2016-05-21T05:35:08.300Z,24.05
2016-05-21T05:36:08.146Z,24.08
2016-05-21T05:37:08.306Z,24.13
2016-05-21T05:38:08.307Z,24.22
2016-05-21T05:39:08.170Z,24.28
2016-05-21T05:40:08.329Z,24.31
2016-05-21T05:41:08.394Z,24.42
2016-05-21T05:42:08.350Z,24.4
2016-05-21T05:43:08.196Z,24.47
2016-05-21T05:44:08.371Z,24.5
2016-05-21T05:45:08.374Z,24.52
2016-05-21T05:46:08.220Z,24.6
2016-05-21T05:47:08.395Z,24.52
2016-05-21T05:48:08.397Z,24.6
2016-05-21T05:49:08.400Z,24.52
2016-05-21T05:50:08.403Z,24.65
2016-05-21T05:51:08.421Z,24.67
2016-05-21T05:52:08.423Z,24.64
2016-05-21T05:53:08.286Z,24.69
2016-05-21T05:54:08.289Z,24.71
2016-05-21T05:55:08.291Z,24.73
2016-05-21T05:56:08.466Z,24.77
2016-05-21T05:57:08.469Z,24.73
2016-05-21T05:58:08.472Z,24.77
2016-05-21T05:59:08.474Z,24.67
2016-05-21T06:00:08.492Z,24.64
2016-05-21T06:01:08.494Z,24.69
2016-05-21T06:02:08.357Z,24.68
2016-05-21T06:03:08.516Z,24.64
2016-05-21T06:04:08.363Z,24.61
2016-05-21T06:05:08.538Z,24.64
2016-05-21T06:06:08.540Z,24.53
2016-05-21T06:07:08.543Z,24.5
2016-05-21T06:08:08.404Z,24.42
2016-05-21T06:09:08.563Z,24.43
2016-05-21T06:10:08.566Z,24.39
2016-05-21T06:11:09.022Z,24.39
2016-05-21T06:12:08.587Z,24.39
2016-05-21T06:13:08.590Z,24.58
2016-05-21T06:14:08.593Z,24.61
2016-05-21T06:15:08.595Z,24.68
2016-05-21T06:16:08.613Z,24.58
2016-05-21T06:17:08.632Z,24.55
2016-05-21T06:18:08.634Z,24.55
2016-05-21T06:19:08.637Z,24.47
2016-05-21T06:20:08.640Z,24.55
2016-05-21T06:21:08.642Z,24.47
2016-05-21T06:22:08.661Z,24.52
2016-05-21T06:23:08.679Z,24.5
2016-05-21T06:24:08.682Z,24.49
2016-05-21T06:25:08.684Z,24.57
2016-05-21T06:26:08.562Z,24.61
2016-05-21T06:27:08.690Z,24.6
2016-05-21T06:28:08.708Z,24.5
2016-05-21T06:29:08.711Z,24.57
2016-05-21T06:30:08.745Z,24.58
2016-05-21T06:31:08.732Z,24.62
2016-05-21T06:32:08.735Z,24.67
2016-05-21T06:33:08.752Z,24.71
2016-05-21T06:34:08.755Z,24.81
2016-05-21T06:35:08.461Z,24.85
2016-05-21T06:36:08.761Z,24.8
2016-05-21T06:37:08.624Z,24.84
2016-05-21T06:38:08.641Z,24.8
2016-05-21T06:39:08.800Z,24.67
2016-05-21T06:40:08.803Z,24.58
2016-05-21T06:41:08.963Z,24.55
2016-05-21T06:42:08.823Z,24.46
2016-05-21T06:43:08.843Z,24.47
2016-05-21T06:44:08.860Z,24.52
2016-05-21T06:45:08.676Z,24.43
2016-05-21T06:46:08.834Z,24.39
2016-05-21T06:47:08.853Z,24.35
2016-05-21T06:48:08.856Z,24.35
2016-05-21T06:49:08.859Z,24.31
2016-05-21T06:50:08.705Z,24.32
2016-05-21T06:51:08.879Z,24.43
2016-05-21T06:52:08.882Z,24.3
2016-05-21T06:53:08.884Z,24.28
2016-05-21T06:54:08.887Z,24.28
2016-05-21T06:55:08.906Z,24.24
2016-05-21T06:56:09.315Z,24.2
2016-05-21T06:57:08.802Z,24.2
2016-05-21T06:58:08.914Z,24.16
2016-05-21T06:59:08.933Z,24.21
2016-05-21T07:00:08.778Z,24.13
2016-05-21T07:01:08.953Z,24.1
2016-05-21T07:02:09.112Z,24.06
2016-05-21T07:03:08.958Z,24.2
2016-05-21T07:04:08.961Z,24.2
2016-05-21T07:05:08.964Z,24.2
2016-05-21T07:06:08.983Z,24.25
2016-05-21T07:07:08.985Z,24.27
2016-05-21T07:08:08.675Z,24.2
2016-05-21T07:09:08.991Z,24.22
2016-05-21T07:10:09.008Z,24.3
2016-05-21T07:11:09.557Z,24.3
2016-05-21T07:12:09.014Z,24.25
2016-05-21T07:13:08.860Z,24.25
2016-05-21T07:14:09.035Z,24.27
2016-05-21T07:15:09.038Z,24.24
2016-05-21T07:16:09.040Z,24.24
2016-05-21T07:17:09.043Z,24.25
2016-05-21T07:18:09.062Z,24.27
2016-05-21T07:19:09.065Z,24.22
2016-05-21T07:20:09.067Z,24.25
2016-05-21T07:21:09.085Z,24.2
2016-05-21T07:22:09.088Z,24.24
2016-05-21T07:23:09.090Z,24.2
2016-05-21T07:24:09.093Z,24.22
2016-05-21T07:25:09.095Z,24.24
2016-05-21T07:26:09.131Z,24.25
2016-05-21T07:27:09.226Z,24.24
2016-05-21T07:28:09.119Z,24.32
2016-05-21T07:29:09.139Z,24.31
2016-05-21T07:30:09.125Z,24.3
2016-05-21T07:31:09.144Z,24.25
2016-05-21T07:32:09.162Z,24.28
2016-05-21T07:33:09.149Z,24.28
2016-05-21T07:34:08.995Z,24.47
2016-05-21T07:35:09.169Z,24.43
2016-05-21T07:36:09.172Z,24.49
2016-05-21T07:37:09.175Z,24.55
2016-05-21T07:38:09.193Z,24.65
2016-05-21T07:39:09.040Z,24.69
2016-05-21T07:40:09.199Z,24.78
2016-05-21T07:41:09.249Z,24.87
2016-05-21T07:42:09.329Z,24.84
2016-05-21T07:43:09.066Z,24.91
2016-05-21T07:44:09.069Z,24.93
2016-05-21T07:45:09.071Z,24.85
2016-05-21T07:46:09.230Z,24.91
2016-05-21T07:47:09.249Z,24.84
2016-05-21T07:48:09.111Z,24.84
2016-05-21T07:49:09.254Z,24.9
2016-05-21T07:50:09.116Z,24.93
2016-05-21T07:51:09.276Z,24.88
2016-05-21T07:52:09.121Z,24.9
2016-05-21T07:53:09.280Z,24.81
2016-05-21T07:54:09.299Z,24.78
2016-05-21T07:55:09.301Z,24.83
2016-05-21T07:56:09.554Z,24.85
2016-05-21T07:57:09.323Z,24.85
2016-05-21T07:58:09.325Z,24.8
2016-05-21T07:59:09.328Z,24.91
2016-05-21T08:00:09.331Z,24.78
2016-05-21T08:01:09.350Z,24.83
2016-05-21T08:02:29.526Z,24.8
2016-05-21T08:03:09.198Z,24.76
2016-05-21T08:04:09.357Z,24.81
2016-05-21T08:05:09.375Z,24.87
2016-05-21T08:06:09.378Z,24.73
2016-05-21T08:07:09.381Z,24.81
2016-05-21T08:08:09.383Z,24.67
2016-05-21T08:09:09.386Z,24.78
2016-05-21T08:10:09.405Z,24.73
2016-05-21T08:11:09.485Z,24.76
2016-05-21T08:12:09.441Z,24.65
2016-05-21T08:13:09.257Z,24.73
2016-05-21T08:14:09.274Z,24.69
2016-05-21T08:15:09.450Z,24.71
2016-05-21T08:16:09.279Z,24.65
2016-05-21T08:17:09.439Z,24.67
2016-05-21T08:18:09.457Z,24.67
2016-05-21T08:19:09.476Z,24.64
2016-05-21T08:20:09.463Z,24.71
2016-05-21T08:21:09.481Z,24.67
2016-05-21T08:22:09.484Z,24.62
2016-05-21T08:23:09.487Z,24.58
2016-05-21T08:24:09.504Z,24.68
2016-05-21T08:25:09.523Z,24.62
2016-05-21T08:26:09.510Z,24.62
2016-05-21T08:27:09.512Z,24.68
2016-05-21T08:28:09.515Z,24.65
2016-05-21T08:29:09.534Z,24.64
2016-05-21T08:30:09.537Z,24.68
2016-05-21T08:31:09.539Z,24.65
2016-05-21T08:32:09.558Z,24.58
2016-05-21T08:33:09.560Z,24.64
2016-05-21T08:34:09.563Z,24.64
2016-05-21T08:35:09.566Z,24.64
2016-05-21T08:36:09.584Z,24.6
2016-05-21T08:37:09.587Z,24.62
2016-05-21T08:38:09.605Z,24.57
2016-05-21T08:39:09.608Z,24.61
2016-05-21T08:40:09.610Z,24.57
2016-05-21T08:41:09.472Z,24.62
2016-05-21T08:42:09.585Z,24.57
2016-05-21T08:43:09.633Z,24.58
2016-05-21T08:44:09.636Z,24.55
2016-05-21T08:45:09.639Z,24.61
2016-05-21T08:46:09.641Z,24.58
2016-05-21T08:47:09.644Z,24.57
2016-05-21T08:48:09.663Z,24.61
2016-05-21T08:49:09.682Z,24.61
2016-05-21T08:50:09.527Z,24.61
2016-05-21T08:51:09.687Z,24.55
2016-05-21T08:52:09.689Z,24.57
2016-05-21T08:53:09.707Z,24.62
2016-05-21T08:54:09.710Z,24.65
2016-05-21T08:55:09.713Z,24.65
2016-05-21T08:56:09.731Z,24.62
2016-05-21T08:57:09.578Z,24.61
2016-05-21T08:58:09.737Z,24.61
2016-05-21T08:59:09.584Z,24.62
2016-05-21T09:00:09.586Z,24.53
2016-05-21T09:01:09.761Z,24.64
2016-05-21T09:02:10.091Z,24.49
2016-05-21T09:03:09.767Z,24.58
2016-05-21T09:04:09.769Z,24.64
2016-05-21T09:05:09.771Z,24.65
2016-05-21T09:06:09.790Z,24.64
2016-05-21T09:07:09.792Z,24.61
2016-05-21T09:08:09.795Z,24.49
2016-05-21T09:09:09.814Z,24.58
2016-05-21T09:10:09.817Z,24.62
2016-05-21T09:11:09.819Z,24.61
2016-05-21T09:12:09.837Z,24.65
2016-05-21T09:13:09.839Z,24.64
2016-05-21T09:14:09.842Z,24.6
2016-05-21T09:15:09.845Z,24.55
2016-05-21T09:16:09.707Z,24.58
2016-05-21T09:17:09.866Z,24.57
2016-05-21T09:18:09.891Z,24.6
2016-05-21T09:19:09.915Z,24.58
2016-05-21T09:20:09.938Z,24.6
2016-05-21T09:21:09.978Z,24.62
2016-05-21T09:22:10.002Z,24.55
2016-05-21T09:23:10.026Z,24.6
2016-05-21T09:24:10.037Z,24.58
2016-05-21T09:25:10.048Z,24.62
2016-05-21T09:26:09.902Z,24.65
2016-05-21T09:27:10.084Z,24.64
2016-05-21T09:28:10.073Z,24.57
2016-05-21T09:29:10.094Z,24.58
2016-05-21T09:30:10.100Z,24.61
2016-05-21T09:31:10.121Z,24.64
2016-05-21T09:32:10.127Z,24.67
2016-05-21T09:33:10.131Z,24.65
2016-05-21T09:34:10.149Z,24.53
2016-05-21T09:35:10.139Z,24.64
2016-05-21T09:36:10.157Z,24.64
2016-05-21T09:37:10.177Z,24.62
2016-05-21T09:38:10.180Z,24.55
2016-05-21T09:39:10.184Z,24.64
2016-05-21T09:40:10.186Z,24.65
2016-05-21T09:41:10.189Z,24.64
2016-05-21T09:42:10.537Z,24.62
2016-05-21T09:43:10.211Z,24.58
2016-05-21T09:44:10.057Z,24.61
2016-05-21T09:45:10.231Z,24.64
2016-05-21T09:46:10.234Z,24.55
2016-05-21T09:47:10.237Z,24.55
2016-05-21T09:48:10.099Z,24.52
2016-05-21T09:49:10.243Z,24.52
2016-05-21T09:50:10.260Z,24.55
2016-05-21T09:51:10.264Z,24.58
2016-05-21T09:52:10.281Z,24.58
2016-05-21T09:53:10.284Z,24.57
2016-05-21T09:54:10.286Z,24.53
2016-05-21T09:55:10.289Z,24.55
2016-05-21T09:56:10.136Z,24.53
2016-05-21T09:57:10.716Z,24.6
2016-05-21T09:58:10.313Z,24.57
2016-05-21T09:59:10.316Z,24.57
2016-05-21T10:00:10.319Z,24.55
2016-05-21T10:01:10.180Z,24.55
2016-05-21T10:02:10.340Z,24.52
2016-05-21T10:03:10.343Z,24.47
2016-05-21T10:04:10.361Z,24.52
2016-05-21T10:05:10.363Z,24.55
2016-05-21T10:06:10.366Z,24.58
2016-05-21T10:07:10.385Z,24.47
2016-05-21T10:08:10.371Z,24.55
2016-05-21T10:09:10.421Z,24.55
2016-05-21T10:10:10.393Z,24.55
2016-05-21T10:11:10.239Z,24.53
2016-05-21T10:12:10.663Z,24.52
2016-05-21T10:13:10.416Z,24.53
2016-05-21T10:14:10.434Z,24.55
2016-05-21T10:15:10.421Z,24.55
2016-05-21T10:16:10.439Z,24.57
2016-05-21T10:17:10.443Z,24.5
2016-05-21T10:18:10.461Z,24.55
2016-05-21T10:19:10.291Z,24.58
2016-05-21T10:20:10.309Z,24.55
2016-05-21T10:21:10.470Z,24.6
2016-05-21T10:22:10.472Z,24.5
2016-05-21T10:23:10.490Z,24.58
2016-05-21T10:24:10.493Z,24.55
2016-05-21T10:25:10.495Z,24.6
2016-05-21T10:26:10.529Z,24.52
2016-05-21T10:27:10.219Z,24.53
2016-05-21T10:28:10.519Z,24.5
2016-05-21T10:29:10.366Z,24.55
2016-05-21T10:30:10.540Z,24.55
2016-05-21T10:31:10.543Z,24.55
2016-05-21T10:32:10.405Z,24.55
2016-05-21T10:33:10.549Z,24.57
2016-05-21T10:34:10.394Z,24.55
2016-05-21T10:35:10.569Z,24.53
2016-05-21T10:36:10.432Z,24.53
2016-05-21T10:37:10.575Z,24.53
2016-05-21T10:38:10.437Z,24.55
2016-05-21T10:39:10.596Z,24.57
2016-05-21T10:40:10.599Z,24.49
2016-05-21T10:41:10.460Z,24.55
2016-05-21T10:42:10.556Z,24.53
2016-05-21T10:43:10.621Z,24.52
2016-05-21T10:44:10.624Z,24.58
2016-05-21T10:45:10.627Z,24.57
2016-05-21T10:46:10.645Z,24.53
2016-05-21T10:47:10.492Z,24.47
2016-05-21T10:48:10.698Z,24.53
2016-05-21T10:49:10.670Z,24.57
2016-05-21T10:50:10.500Z,24.52
2016-05-21T10:51:10.675Z,24.55
2016-05-21T10:52:10.678Z,24.49
2016-05-21T10:53:10.696Z,24.5
2016-05-21T10:54:10.542Z,24.49
2016-05-21T10:55:10.701Z,24.5
2016-05-21T10:56:10.704Z,24.52
2016-05-21T10:57:10.567Z,24.49
2016-05-21T10:58:10.724Z,24.5
2016-05-21T10:59:10.790Z,24.47
2016-05-21T11:00:10.746Z,24.52
2016-05-21T11:01:10.592Z,24.57
2016-05-21T11:02:10.954Z,24.53
2016-05-21T11:03:10.755Z,24.57
2016-05-21T11:04:10.757Z,24.55
2016-05-21T11:05:10.774Z,24.52
2016-05-21T11:06:10.621Z,24.52
2016-05-21T11:07:10.780Z,24.53
2016-05-21T11:08:10.783Z,24.53
2016-05-21T11:09:10.785Z,24.47
2016-05-21T11:10:10.648Z,24.5
2016-05-21T11:11:10.822Z,24.5
2016-05-21T11:12:11.247Z,24.47
2016-05-21T11:13:10.827Z,24.57
2016-05-21T11:14:10.846Z,24.47
2016-05-21T11:15:10.833Z,24.5
2016-05-21T11:16:10.835Z,24.45
2016-05-21T11:17:10.854Z,24.45
2016-05-21T11:18:10.701Z,24.5
2016-05-21T11:19:10.859Z,24.47
2016-05-21T11:20:10.878Z,24.45
2016-05-21T11:21:10.881Z,24.49
2016-05-21T11:22:10.726Z,24.46
2016-05-21T11:23:10.886Z,24.49
2016-05-21T11:24:10.904Z,24.47
2016-05-21T11:25:10.891Z,24.46
2016-05-21T11:26:10.769Z,24.46
2016-05-21T11:27:11.068Z,24.53
2016-05-21T11:28:10.931Z,24.49
2016-05-21T11:29:10.933Z,24.45
2016-05-21T11:30:10.936Z,24.52
2016-05-21T11:31:10.938Z,24.5
2016-05-21T11:32:10.957Z,24.5
2016-05-21T11:33:10.803Z,24.47
2016-05-21T11:34:10.978Z,24.47
2016-05-21T11:35:10.965Z,24.47
2016-05-21T11:36:10.827Z,24.43
2016-05-21T11:37:10.986Z,24.49
2016-05-21T11:38:10.989Z,24.46
2016-05-21T11:39:11.022Z,24.47
2016-05-21T11:40:10.854Z,24.43
2016-05-21T11:41:11.012Z,24.5
2016-05-21T11:42:10.952Z,24.47
2016-05-21T11:43:11.032Z,24.43
2016-05-21T11:44:10.865Z,24.49
2016-05-21T11:45:11.038Z,24.42
2016-05-21T11:46:11.057Z,24.43
2016-05-21T11:47:11.060Z,24.4
2016-05-21T11:48:11.063Z,24.46
2016-05-21T11:49:10.909Z,24.47
2016-05-21T11:50:11.068Z,24.45
2016-05-21T11:51:11.086Z,24.42
2016-05-21T11:52:11.073Z,24.47
2016-05-21T11:53:11.092Z,24.4
2016-05-21T11:54:11.109Z,24.47
2016-05-21T11:55:10.956Z,24.47
2016-05-21T11:56:11.115Z,24.42
2016-05-21T11:57:11.056Z,24.43
2016-05-21T11:58:11.136Z,24.46
2016-05-21T11:59:11.139Z,24.43
2016-05-21T12:00:11.141Z,24.47
2016-05-21T12:01:11.144Z,24.47
2016-05-21T12:02:11.005Z,24.47
2016-05-21T12:03:11.166Z,24.49
2016-05-21T12:04:11.169Z,24.47
2016-05-21T12:05:11.171Z,24.45
2016-05-21T12:06:11.188Z,24.47
2016-05-21T12:07:11.035Z,24.46
2016-05-21T12:08:11.194Z,24.52
2016-05-21T12:09:11.197Z,24.46
2016-05-21T12:10:11.216Z,24.45
2016-05-21T12:11:11.218Z,24.47
2016-05-21T12:12:11.502Z,24.47
2016-05-21T12:13:11.238Z,24.47
2016-05-21T12:14:11.241Z,24.45
2016-05-21T12:15:11.244Z,24.45
2016-05-21T12:16:11.247Z,24.46
2016-05-21T12:17:11.249Z,24.47
2016-05-21T12:18:11.268Z,24.47
2016-05-21T12:19:11.271Z,24.45
2016-05-21T12:20:11.273Z,24.47
2016-05-21T12:21:11.276Z,24.5
2016-05-21T12:22:11.138Z,24.47
2016-05-21T12:23:11.297Z,24.45
2016-05-21T12:24:11.300Z,24.46
2016-05-21T12:25:11.303Z,24.43
2016-05-21T12:26:11.320Z,24.45
2016-05-21T12:27:11.370Z,24.47
2016-05-21T12:28:11.326Z,24.47
2016-05-21T12:29:11.344Z,24.45
2016-05-21T12:30:11.191Z,24.49
2016-05-21T12:31:11.350Z,24.43
2016-05-21T12:32:11.212Z,24.39
2016-05-21T12:33:11.356Z,24.47
2016-05-21T12:34:11.374Z,24.39
2016-05-21T12:35:11.220Z,24.45
2016-05-21T12:36:11.379Z,24.42
2016-05-21T12:37:11.397Z,24.39
2016-05-21T12:38:11.415Z,24.45
2016-05-21T12:39:11.403Z,24.47
2016-05-21T12:40:11.436Z,24.5
2016-05-21T12:41:11.423Z,24.49
2016-05-21T12:42:11.271Z,24.47
2016-05-21T12:43:11.429Z,24.5
2016-05-21T12:44:11.447Z,24.46
2016-05-21T12:45:11.450Z,24.39
2016-05-21T12:46:11.468Z,24.4
2016-05-21T12:47:11.471Z,24.47
2016-05-21T12:48:11.473Z,24.42
2016-05-21T12:49:11.476Z,24.47
2016-05-21T12:50:11.479Z,24.47
2016-05-21T12:51:11.482Z,24.47
2016-05-21T12:52:11.485Z,24.42
2016-05-21T12:53:11.503Z,24.4
2016-05-21T12:54:11.506Z,24.45
2016-05-21T12:55:11.523Z,24.45